Aérodrome :
LOGIN :

S'inscrire | Disclaimer

   EN    FR    IT 

 










Légende :    VFR   VFR Marginal   IFR   IFR Intensif   IFR Très Intensif
Visi : 
Plafond : 
>= 8 km
>= 3000ft
5 à 8 km
1000 à 3000 ft
1500m à 5 km
500 à 1000 ft
800 à 1500m
200 à 500 ft
< 800m
< 200 ft
Symboles :   Orages  Brouillard  Fortes neiges  Fortes précipitations  Vent > 20 kt
SIGMETs :   Divers  Orages  Givrage  Turbulence  Onde Orograph.  Cendres Volcan.







- Altitude de l'aérodrome : 336 ft
- Code IATA : GCI
- Voir les cartes d'approche


EGJB - Guernsey

DERNIER METAR :
  • 170350Z 24006KT 9999 FEW028 11/09 Q1020

METARs EXPIRÉS :
  • 170320Z 25007KT 9999 FEW026 12/09 Q1020
  • 170250Z 24008KT 9999 FEW028 12/08 Q1021

TAF TAF EGJB
Valide du 17 à 00h jusqu'au 17 à 09h UTC


162255Z 1700/1709 26014KT 9999 BKN025
BECMG 1703/1706 VRB04KT
PROB30
TEMPO 1703/1709 5000 SHRA
ATIS : +44 1481 238 957
Pas de NOTAMs connus pour ce terrain.
1 SIGMET publié pour la FIR Brest (LFRR) :
 
Orages noyés dans la masse
LFRR SIGMET 1 VALID 170300/170500 LFPW
LFRR BREST FIR/UIR EMBD TS OBS WI N4430 W00530 - N4500 W00800 - N4745 W00800 - N4745 W00445 TOP FL380 MOV NE 15KT NC=



MET'MAP, la Météo Aéronautique d'un coup d'oeil ! - Copyright ORBIFLY Décembre 2007 - Disclaimer

ORBIFLY MET'MAP TEAM :

Programmation & Développement : Alexandra Zaïnal
Conception & Développement : Baudouin d'Aumeries
Co-Programmation & Développement : Marc-Olivier Méhu
Soutien technique & logistique : Manuel Goepfert

Contact : metmap@orbifly.com




SOURCES & CREDITS :

   NOAA